createdAt,value
2022-10-19T00:01:20.467Z,14.17
2022-10-19T00:03:50.550Z,14.80
2022-10-19T00:06:25.419Z,14.90
2022-10-19T00:08:54.664Z,14.10
2022-10-19T00:11:24.794Z,12.43
2022-10-19T00:13:54.668Z,12.77
2022-10-19T00:16:23.706Z,13.30
2022-10-19T00:18:52.112Z,12.83
2022-10-19T00:21:21.161Z,14.10
2022-10-19T00:23:49.996Z,13.33
2022-10-19T00:26:18.230Z,12.70
2022-10-19T00:28:50.805Z,11.80
2022-10-19T00:31:19.585Z,13.30
2022-10-19T00:33:48.590Z,9.27
2022-10-19T00:36:18.949Z,13.87
2022-10-19T00:38:47.164Z,13.23
2022-10-19T00:41:16.442Z,10.27
2022-10-19T00:43:58.724Z,13.40
2022-10-19T00:46:28.731Z,9.97
2022-10-19T00:49:01.700Z,12.73
2022-10-19T00:51:32.626Z,11.07
2022-10-19T00:54:04.376Z,10.83
2022-10-19T00:56:33.664Z,10.67
2022-10-19T00:59:07.680Z,11.30
2022-10-19T01:01:36.223Z,11.00
2022-10-19T01:04:05.842Z,9.37
2022-10-19T01:06:35.195Z,11.27
2022-10-19T01:09:03.417Z,11.27
2022-10-19T01:11:41.038Z,9.97
2022-10-19T01:14:27.674Z,11.27
2022-10-19T01:17:04.760Z,12.73
2022-10-19T01:20:09.337Z,12.53
2022-10-19T01:22:52.172Z,13.97
2022-10-19T01:25:24.401Z,12.90
2022-10-19T01:28:09.521Z,14.40
2022-10-19T01:30:48.896Z,14.20
2022-10-19T01:33:32.939Z,11.00
2022-10-19T01:36:10.366Z,10.80
2022-10-19T01:38:46.463Z,13.30
2022-10-19T01:41:19.086Z,11.50
2022-10-19T01:43:59.272Z,31.63
2022-10-19T01:46:41.071Z,16.13
2022-10-19T01:49:13.923Z,12.17
2022-10-19T01:51:47.311Z,13.70
2022-10-19T01:54:18.396Z,12.20
2022-10-19T01:56:49.724Z,15.87
2022-10-19T01:59:21.651Z,14.43
2022-10-19T02:01:54.703Z,13.63
2022-10-19T02:04:25.151Z,11.77
2022-10-19T02:06:55.976Z,16.63
2022-10-19T02:09:24.306Z,19.00
2022-10-19T02:11:57.264Z,15.43
2022-10-19T02:14:30.026Z,16.93
2022-10-19T02:17:04.168Z,19.10
2022-10-19T02:19:32.590Z,15.37
2022-10-19T02:22:01.131Z,16.67
2022-10-19T02:24:29.646Z,16.77
2022-10-19T02:26:58.351Z,16.07
2022-10-19T02:29:26.630Z,14.50
2022-10-19T02:31:55.005Z,16.63
2022-10-19T02:34:24.939Z,29.67
2022-10-19T02:36:53.021Z,21.57
2022-10-19T02:39:21.652Z,19.23
2022-10-19T02:41:54.147Z,29.50
2022-10-19T02:44:26.616Z,21.03
2022-10-19T02:46:59.769Z,17.50
2022-10-19T02:49:34.362Z,19.17
2022-10-19T02:52:05.267Z,18.03
2022-10-19T02:54:33.687Z,17.10
2022-10-19T02:57:01.947Z,20.03
2022-10-19T02:59:30.132Z,24.63
2022-10-19T03:01:58.288Z,21.33
2022-10-19T03:04:26.524Z,18.67
2022-10-19T03:06:56.107Z,19.03
2022-10-19T03:09:24.184Z,18.77
2022-10-19T03:11:52.344Z,22.40
2022-10-19T03:14:20.337Z,25.57
2022-10-19T03:16:49.319Z,25.63
2022-10-19T03:19:17.407Z,24.00
2022-10-19T03:21:45.466Z,23.97
2022-10-19T03:24:15.351Z,22.37
2022-10-19T03:26:46.544Z,22.10
2022-10-19T03:29:14.798Z,47.43
2022-10-19T03:31:42.993Z,52.23
2022-10-19T03:34:11.087Z,33.40
2022-10-19T03:36:41.576Z,32.50
2022-10-19T03:39:14.282Z,33.37
2022-10-19T03:41:47.014Z,29.00
2022-10-19T03:44:16.315Z,28.17
2022-10-19T03:46:44.685Z,26.67
2022-10-19T03:49:13.197Z,31.03
2022-10-19T03:51:41.670Z,32.40
2022-10-19T03:54:14.862Z,24.57
2022-10-19T03:56:45.227Z,27.10
2022-10-19T03:59:15.953Z,30.03
2022-10-19T04:01:45.934Z,33.40
2022-10-19T04:04:16.465Z,36.43
2022-10-19T04:06:46.704Z,30.80
2022-10-19T04:09:16.877Z,33.00
2022-10-19T04:11:46.712Z,32.37
2022-10-19T04:14:26.651Z,34.57
2022-10-19T04:17:00.616Z,32.47
2022-10-19T04:19:30.049Z,32.60
2022-10-19T04:21:58.662Z,36.13
2022-10-19T04:24:27.118Z,26.90
2022-10-19T04:27:07.973Z,30.20
2022-10-19T04:29:42.933Z,34.80
2022-10-19T04:32:11.614Z,32.70
2022-10-19T04:34:40.286Z,34.63
2022-10-19T04:37:08.683Z,34.50
2022-10-19T04:39:46.935Z,33.27
2022-10-19T04:42:16.783Z,31.60
2022-10-19T04:44:44.865Z,28.77
2022-10-19T04:47:12.962Z,30.30
2022-10-19T04:49:41.121Z,30.47
2022-10-19T04:52:09.272Z,34.70
2022-10-19T04:54:37.351Z,32.10
2022-10-19T04:57:05.623Z,29.70
2022-10-19T04:59:37.981Z,33.63
2022-10-19T05:02:06.293Z,30.83
2022-10-19T05:04:34.358Z,38.30
2022-10-19T05:07:02.345Z,32.80
2022-10-19T05:09:30.698Z,41.00
2022-10-19T05:11:58.769Z,32.73
2022-10-19T05:16:57.459Z,37.60
2022-10-19T05:19:25.666Z,36.03
2022-10-19T05:21:53.715Z,31.10
2022-10-19T05:24:25.008Z,30.43
2022-10-19T05:26:53.302Z,38.63
2022-10-19T05:29:21.432Z,37.03
2022-10-19T05:31:49.480Z,32.60
2022-10-19T05:34:19.104Z,34.27
2022-10-19T05:36:47.252Z,38.00
2022-10-19T05:39:17.705Z,36.10
2022-10-19T05:41:46.449Z,36.80
2022-10-19T05:44:17.399Z,33.27
2022-10-19T05:46:46.005Z,22.63
2022-10-19T05:49:15.108Z,30.67
2022-10-19T05:51:44.861Z,32.53
2022-10-19T05:54:13.761Z,32.13
2022-10-19T05:56:43.344Z,28.90
2022-10-19T05:59:15.468Z,29.23
2022-10-19T06:01:44.792Z,32.27
2022-10-19T06:04:14.912Z,26.93
2022-10-19T06:06:44.609Z,31.60
2022-10-19T06:09:13.210Z,32.17
2022-10-19T06:11:42.991Z,36.90
2022-10-19T06:14:14.575Z,34.67
2022-10-19T06:16:43.047Z,28.07
2022-10-19T06:19:11.728Z,31.77
2022-10-19T06:21:43.264Z,29.13
2022-10-19T06:24:15.451Z,29.83
2022-10-19T06:26:46.272Z,27.83
2022-10-19T06:29:14.467Z,27.30
2022-10-19T06:31:42.729Z,24.73
2022-10-19T06:34:10.760Z,27.03
2022-10-19T06:36:38.887Z,30.57
2022-10-19T06:39:06.925Z,29.40
2022-10-19T06:41:36.536Z,27.87
2022-10-19T06:44:04.590Z,24.00
2022-10-19T06:46:33.932Z,30.73
2022-10-19T06:49:03.466Z,29.47
2022-10-19T06:51:33.995Z,26.33
2022-10-19T06:54:02.522Z,31.30
2022-10-19T06:56:30.903Z,23.47
2022-10-19T06:59:00.607Z,21.37
2022-10-19T07:01:28.877Z,24.40
2022-10-19T07:03:57.006Z,22.63
2022-10-19T07:06:25.627Z,22.33
2022-10-19T07:08:53.750Z,26.77
2022-10-19T07:11:23.197Z,23.07
2022-10-19T07:13:53.331Z,21.83
2022-10-19T07:16:23.042Z,20.83
2022-10-19T07:18:53.192Z,22.13
2022-10-19T07:21:23.098Z,23.60
2022-10-19T07:23:51.366Z,19.47
2022-10-19T07:26:23.420Z,20.07
2022-10-19T07:28:52.116Z,19.40
2022-10-19T07:31:24.265Z,26.40
2022-10-19T07:33:54.531Z,19.87
2022-10-19T07:36:23.188Z,23.93
2022-10-19T07:38:51.574Z,21.97
2022-10-19T07:41:21.204Z,23.07
2022-10-19T07:43:50.195Z,21.00
2022-10-19T07:46:20.109Z,26.40
2022-10-19T07:48:50.040Z,26.60
2022-10-19T07:51:20.112Z,20.80
2022-10-19T07:53:48.451Z,24.10
2022-10-19T07:56:18.440Z,22.53
2022-10-19T07:58:47.013Z,19.37
2022-10-19T08:01:16.739Z,22.43
2022-10-19T08:06:35.061Z,24.20
2022-10-19T08:09:03.282Z,22.30
2022-10-19T08:11:33.755Z,24.77
2022-10-19T08:14:02.992Z,29.93
2022-10-19T08:16:33.760Z,23.17
2022-10-19T08:19:03.410Z,22.30
2022-10-19T08:21:32.260Z,25.67
2022-10-19T08:24:02.865Z,20.67
2022-10-19T08:26:32.897Z,21.50
2022-10-19T08:29:02.297Z,17.00
2022-10-19T08:31:30.358Z,11.50
2022-10-19T08:33:58.605Z,13.53
2022-10-19T08:36:31.246Z,14.80
2022-10-19T08:38:59.884Z,14.90
2022-10-19T08:41:35.058Z,20.43
2022-10-19T08:44:20.656Z,14.40
2022-10-19T08:47:01.474Z,13.00
2022-10-19T08:49:32.783Z,15.83
2022-10-19T08:52:04.103Z,14.10
2022-10-19T08:54:38.873Z,17.13
2022-10-19T08:57:26.259Z,12.83
2022-10-19T08:59:59.815Z,14.43
2022-10-19T09:02:44.748Z,16.70
2022-10-19T09:05:21.663Z,16.60
2022-10-19T09:07:53.002Z,16.97
2022-10-19T09:10:26.059Z,17.17
2022-10-19T09:12:59.875Z,18.80
2022-10-19T09:15:33.663Z,21.70
2022-10-19T09:18:02.665Z,17.40
2022-10-19T09:20:37.296Z,13.70
2022-10-19T09:23:13.521Z,14.13
2022-10-19T09:25:42.088Z,13.33
2022-10-19T09:28:33.916Z,11.33
2022-10-19T09:31:08.640Z,12.00
2022-10-19T09:33:40.542Z,12.57
2022-10-19T09:36:15.037Z,13.53
2022-10-19T09:38:52.163Z,18.20
2022-10-19T09:41:23.548Z,19.77
2022-10-19T09:43:54.970Z,16.37
2022-10-19T09:46:43.005Z,16.40
2022-10-19T09:49:11.199Z,15.37
2022-10-19T09:51:50.459Z,15.87
2022-10-19T09:54:27.573Z,16.87
2022-10-19T09:57:05.029Z,14.83
2022-10-19T09:59:37.928Z,14.77
2022-10-19T10:02:17.903Z,16.67
2022-10-19T10:04:57.208Z,16.90
2022-10-19T10:07:33.863Z,15.60
2022-10-19T10:10:02.092Z,15.43
2022-10-19T10:12:30.597Z,18.20
2022-10-19T10:15:00.952Z,16.30
2022-10-19T10:17:31.563Z,13.10
2022-10-19T10:20:17.878Z,12.80
2022-10-19T10:22:53.860Z,10.73
2022-10-19T10:25:25.251Z,15.10
2022-10-19T10:27:59.732Z,13.97
2022-10-19T10:30:35.407Z,12.63
2022-10-19T10:33:13.252Z,14.20
2022-10-19T10:35:49.878Z,12.60
2022-10-19T10:38:20.989Z,12.90
2022-10-19T10:40:53.699Z,12.57
2022-10-19T10:43:25.996Z,12.00
2022-10-19T10:45:56.802Z,15.10
2022-10-19T10:48:31.316Z,15.87
2022-10-19T10:51:02.273Z,16.37
2022-10-19T10:53:34.721Z,15.10
2022-10-19T10:56:04.234Z,17.17
2022-10-19T10:58:40.980Z,23.80
2022-10-19T11:01:21.081Z,19.00
2022-10-19T11:03:58.516Z,15.97
2022-10-19T11:06:32.256Z,16.23
2022-10-19T11:09:08.806Z,18.37
2022-10-19T11:11:40.544Z,15.20
2022-10-19T11:14:24.100Z,16.10
2022-10-19T11:16:56.416Z,14.17
2022-10-19T11:19:28.091Z,21.93
2022-10-19T11:22:07.215Z,18.67
2022-10-19T11:24:48.771Z,16.70
2022-10-19T11:27:30.510Z,15.33
2022-10-19T11:30:17.441Z,13.37
2022-10-19T11:33:05.204Z,15.13
2022-10-19T11:35:45.749Z,14.23
2022-10-19T11:38:36.305Z,17.80
2022-10-19T11:41:19.844Z,13.13
2022-10-19T11:44:01.824Z,14.07
2022-10-19T11:46:36.104Z,15.90
2022-10-19T11:49:24.193Z,12.60
2022-10-19T11:52:01.616Z,14.80
2022-10-19T11:54:43.515Z,11.93
2022-10-19T11:57:17.259Z,15.70
2022-10-19T12:00:14.645Z,18.40
2022-10-19T12:03:22.721Z,13.57
2022-10-19T12:06:04.059Z,12.70
2022-10-19T12:08:47.188Z,13.87
2022-10-19T12:11:28.637Z,16.53
2022-10-19T12:14:00.904Z,11.67
2022-10-19T12:16:36.956Z,13.17
2022-10-19T12:19:06.747Z,12.40
2022-10-19T12:21:39.532Z,18.33
2022-10-19T12:24:15.947Z,13.07
2022-10-19T12:26:46.142Z,11.80
2022-10-19T12:29:18.044Z,16.27
2022-10-19T12:31:47.512Z,11.87
2022-10-19T12:34:25.456Z,12.00
2022-10-19T12:37:01.860Z,11.80
2022-10-19T12:39:36.464Z,13.07
2022-10-19T12:42:14.900Z,12.37
2022-10-19T12:45:09.207Z,13.03
2022-10-19T12:47:37.732Z,16.00
2022-10-19T12:50:06.862Z,10.10
2022-10-19T12:52:43.103Z,11.30
2022-10-19T12:55:29.726Z,10.00
2022-10-19T12:58:04.403Z,11.00
2022-10-19T13:00:34.941Z,10.93
2022-10-19T13:03:07.702Z,10.83
2022-10-19T13:05:36.771Z,12.37
2022-10-19T13:08:12.072Z,10.90
2022-10-19T13:10:42.683Z,14.10
2022-10-19T13:13:40.402Z,12.40
2022-10-19T13:16:56.371Z,13.20
2022-10-19T13:19:25.040Z,13.50
2022-10-19T13:22:19.591Z,13.47
2022-10-19T13:25:23.661Z,11.97
2022-10-19T13:27:53.156Z,12.73
2022-10-19T13:31:05.930Z,11.20
2022-10-19T13:33:57.466Z,16.43
2022-10-19T13:36:27.118Z,10.80
2022-10-19T13:39:19.992Z,11.80
2022-10-19T13:41:54.024Z,15.47
2022-10-19T13:44:39.432Z,17.70
2022-10-19T13:47:28.312Z,16.90
2022-10-19T13:50:23.189Z,16.03
2022-10-19T13:53:17.603Z,19.43
2022-10-19T13:56:15.319Z,15.60
2022-10-19T13:59:29.656Z,18.13
2022-10-19T14:02:23.625Z,17.80
2022-10-19T14:05:06.823Z,14.73
2022-10-19T14:07:47.765Z,14.97
2022-10-19T14:10:22.757Z,16.43
2022-10-19T14:12:58.019Z,13.23
2022-10-19T14:15:28.515Z,16.27
2022-10-19T14:18:01.259Z,17.83
2022-10-19T14:20:34.728Z,14.23
2022-10-19T14:23:21.284Z,18.50
2022-10-19T14:25:58.360Z,17.80
2022-10-19T14:28:27.035Z,15.50
2022-10-19T14:31:00.749Z,16.93
2022-10-19T14:33:33.753Z,12.90
2022-10-19T14:36:03.059Z,18.73
2022-10-19T14:38:35.172Z,19.03
2022-10-19T14:41:03.909Z,15.63
2022-10-19T14:43:34.597Z,10.80
2022-10-19T14:46:12.674Z,11.60
2022-10-19T14:48:45.238Z,16.23
2022-10-19T14:51:28.363Z,13.20
2022-10-19T14:54:01.195Z,13.53
2022-10-19T14:56:34.629Z,12.80
2022-10-19T14:59:06.327Z,13.60
2022-10-19T15:01:35.647Z,14.30
2022-10-19T15:04:05.298Z,13.93
2022-10-19T15:06:42.372Z,11.80
2022-10-19T15:09:36.790Z,13.57
2022-10-19T15:12:09.257Z,11.80
2022-10-19T15:14:39.955Z,18.20
2022-10-19T15:17:24.396Z,19.53
2022-10-19T15:19:56.834Z,18.03
2022-10-19T15:22:40.281Z,16.10
2022-10-19T15:25:27.984Z,15.70
2022-10-19T15:27:57.612Z,18.10
2022-10-19T15:30:29.201Z,20.60
2022-10-19T15:33:11.201Z,17.93
2022-10-19T15:35:45.123Z,16.20
2022-10-19T15:38:21.897Z,16.07
2022-10-19T15:40:50.651Z,14.67
2022-10-19T15:43:38.311Z,19.60
2022-10-19T15:46:07.753Z,15.23
2022-10-19T15:48:51.151Z,18.40
2022-10-19T15:51:39.332Z,20.37
2022-10-19T15:54:08.556Z,14.63
2022-10-19T15:56:40.707Z,17.57
2022-10-19T15:59:13.967Z,15.27
2022-10-19T16:01:42.858Z,15.47
2022-10-19T16:04:12.778Z,13.50
2022-10-19T16:06:45.361Z,13.40
2022-10-19T16:09:19.335Z,21.20
2022-10-19T16:11:47.457Z,14.43
2022-10-19T16:16:51.172Z,17.67
2022-10-19T16:19:19.290Z,15.77
2022-10-19T16:21:51.352Z,17.20
2022-10-19T16:24:19.511Z,27.60
2022-10-19T16:26:47.568Z,16.30
2022-10-19T16:29:15.670Z,17.60
2022-10-19T16:31:43.634Z,19.17
2022-10-19T16:34:11.631Z,18.47
2022-10-19T16:36:39.623Z,15.03
2022-10-19T16:39:08.961Z,16.10
2022-10-19T16:44:13.188Z,19.90
2022-10-19T16:46:41.334Z,16.67
2022-10-19T16:49:09.659Z,20.97
2022-10-19T16:51:38.512Z,12.30
2022-10-19T16:54:09.839Z,15.53
2022-10-19T16:56:43.046Z,14.73
2022-10-19T16:59:13.071Z,17.03
2022-10-19T17:01:41.673Z,20.43
2022-10-19T17:04:10.433Z,15.57
2022-10-19T17:06:38.895Z,15.37
2022-10-19T17:09:40.801Z,19.20
2022-10-19T17:11:58.363Z,18.13
2022-10-19T17:14:26.346Z,16.60
2022-10-19T17:16:57.240Z,13.80
2022-10-19T17:19:25.831Z,14.43
2022-10-19T17:21:57.628Z,11.03
2022-10-19T17:24:26.659Z,15.93
2022-10-19T17:26:56.700Z,12.10
2022-10-19T17:29:26.247Z,15.13
2022-10-19T17:31:54.314Z,9.00
2022-10-19T17:34:23.792Z,18.83
2022-10-19T17:36:53.378Z,18.37
2022-10-19T17:39:27.261Z,24.60
2022-10-19T17:42:01.446Z,21.20
2022-10-19T17:44:32.798Z,18.53
2022-10-19T17:47:02.531Z,19.63
2022-10-19T17:49:30.760Z,22.70
2022-10-19T17:51:59.279Z,23.30
2022-10-19T17:54:27.623Z,19.90
2022-10-19T17:56:56.715Z,21.17
2022-10-19T17:59:34.875Z,20.73
2022-10-19T18:02:11.304Z,29.90
2022-10-19T18:04:40.062Z,21.23
2022-10-19T18:07:08.587Z,25.00
2022-10-19T18:09:36.606Z,25.73
2022-10-19T18:12:06.475Z,28.40
2022-10-19T18:14:36.281Z,35.90
2022-10-19T18:17:05.975Z,32.83
2022-10-19T18:19:35.615Z,29.43
2022-10-19T18:22:04.884Z,26.90
2022-10-19T18:24:34.637Z,19.43
2022-10-19T18:27:02.786Z,12.70
2022-10-19T18:29:31.209Z,16.40
2022-10-19T18:32:02.577Z,22.10
2022-10-19T18:34:31.081Z,15.30
2022-10-19T18:37:01.280Z,15.77
2022-10-19T18:39:29.527Z,13.40
2022-10-19T18:41:57.889Z,18.90
2022-10-19T18:44:27.924Z,14.60
2022-10-19T18:46:57.463Z,12.10
2022-10-19T18:49:26.028Z,19.83
2022-10-19T18:51:55.709Z,18.33
2022-10-19T18:54:27.922Z,17.43
2022-10-19T18:56:56.455Z,15.10
2022-10-19T18:59:24.762Z,13.30
2022-10-19T19:01:52.874Z,26.73
2022-10-19T19:04:20.953Z,19.80
2022-10-19T19:06:49.101Z,19.10
2022-10-19T19:09:17.434Z,16.30
2022-10-19T19:11:46.892Z,22.40
2022-10-19T19:14:17.513Z,17.73
2022-10-19T19:16:46.543Z,15.10
2022-10-19T19:19:16.542Z,16.77
2022-10-19T19:21:45.109Z,18.13
2022-10-19T19:24:14.801Z,18.43
2022-10-19T19:26:45.516Z,21.20
2022-10-19T19:29:15.171Z,16.17
2022-10-19T19:31:43.417Z,18.57
2022-10-19T19:34:11.479Z,23.10
2022-10-19T19:39:15.247Z,16.17
2022-10-19T19:41:44.274Z,22.17
2022-10-19T19:44:12.312Z,15.40
2022-10-19T19:46:41.672Z,16.53
2022-10-19T19:49:09.652Z,19.37
2022-10-19T19:51:37.744Z,21.40
2022-10-19T19:54:06.227Z,20.10
2022-10-19T19:56:34.358Z,23.60
2022-10-19T19:59:04.479Z,26.87
2022-10-19T20:01:33.372Z,15.20
2022-10-19T20:06:38.123Z,19.43
2022-10-19T20:09:11.344Z,28.43
2022-10-19T20:11:42.569Z,17.13
2022-10-19T20:14:11.343Z,13.00
2022-10-19T20:16:39.320Z,21.70
2022-10-19T20:19:10.759Z,16.90
2022-10-19T20:21:39.208Z,15.27
2022-10-19T20:24:07.745Z,21.00
2022-10-19T20:26:35.686Z,18.10
2022-10-19T20:29:04.723Z,21.50
2022-10-19T20:31:39.162Z,20.23
2022-10-19T20:34:13.942Z,16.23
2022-10-19T20:36:42.556Z,21.33
2022-10-19T20:39:11.103Z,23.57
2022-10-19T20:41:39.259Z,19.70
2022-10-19T20:44:07.500Z,21.23
2022-10-19T20:46:36.911Z,21.30
2022-10-19T20:49:05.468Z,26.90
2022-10-19T20:51:37.794Z,18.37
2022-10-19T20:54:08.033Z,14.33
2022-10-19T20:56:38.065Z,21.60
2022-10-19T20:59:08.384Z,18.90
2022-10-19T21:01:38.989Z,13.77
2022-10-19T21:04:09.727Z,10.60
2022-10-19T21:06:42.559Z,17.07
2022-10-19T21:09:11.826Z,11.70
2022-10-19T21:11:42.294Z,7.83
2022-10-19T21:14:13.552Z,13.90
2022-10-19T21:16:42.647Z,13.23
2022-10-19T21:19:13.801Z,16.10
2022-10-19T21:21:45.161Z,16.63
2022-10-19T21:24:15.301Z,13.57
2022-10-19T21:26:44.540Z,21.43
2022-10-19T21:29:14.632Z,23.03
2022-10-19T21:31:47.831Z,17.20
2022-10-19T21:34:18.865Z,16.07
2022-10-19T21:36:48.375Z,20.77
2022-10-19T21:39:16.498Z,16.70
2022-10-19T21:41:44.465Z,17.43
2022-10-19T21:44:12.554Z,17.03
2022-10-19T21:46:40.555Z,16.00
2022-10-19T21:49:08.524Z,23.90
2022-10-19T21:51:39.190Z,13.47
2022-10-19T21:54:12.349Z,18.10
2022-10-19T21:56:40.361Z,16.97
2022-10-19T21:59:08.636Z,16.20
2022-10-19T22:01:40.377Z,14.10
2022-10-19T22:04:13.086Z,12.23
2022-10-19T22:06:41.367Z,13.10
2022-10-19T22:09:13.719Z,16.17
2022-10-19T22:11:41.767Z,31.33
2022-10-19T22:14:11.483Z,14.17
2022-10-19T22:16:41.583Z,19.07
2022-10-19T22:19:10.044Z,14.10
2022-10-19T22:24:08.489Z,17.47
2022-10-19T22:26:40.185Z,15.00
2022-10-19T22:29:08.863Z,31.53
2022-10-19T22:31:37.585Z,13.33
2022-10-19T22:34:08.270Z,13.00
2022-10-19T22:36:37.875Z,14.33
2022-10-19T22:39:06.509Z,11.90
2022-10-19T22:42:29.691Z,16.23
2022-10-19T22:44:59.027Z,21.10
2022-10-19T22:47:27.001Z,23.67
2022-10-19T22:49:55.189Z,17.03
2022-10-19T22:52:23.175Z,11.70
2022-10-19T22:54:52.003Z,14.93
2022-10-19T22:57:19.999Z,18.87
2022-10-19T22:59:48.000Z,13.60
2022-10-19T23:02:17.258Z,12.53
2022-10-19T23:04:45.346Z,12.30
2022-10-19T23:07:13.514Z,16.67
2022-10-19T23:09:41.489Z,16.10
2022-10-19T23:12:09.578Z,13.23
2022-10-19T23:14:37.715Z,17.03
2022-10-19T23:17:06.207Z,12.63
2022-10-19T23:19:35.619Z,14.63
2022-10-19T23:22:03.682Z,15.77
2022-10-19T23:24:31.742Z,8.80
2022-10-19T23:26:59.753Z,12.17
2022-10-19T23:29:27.827Z,9.73
2022-10-19T23:31:55.819Z,14.73
2022-10-19T23:34:23.933Z,16.07
2022-10-19T23:36:54.671Z,14.47
2022-10-19T23:39:22.838Z,14.07
2022-10-19T23:41:51.066Z,14.47
2022-10-19T23:44:19.171Z,14.77
2022-10-19T23:46:47.365Z,12.60
2022-10-19T23:49:15.438Z,13.83
2022-10-19T23:51:43.521Z,12.60
2022-10-19T23:54:13.196Z,14.80
2022-10-19T23:56:41.254Z,15.40
2022-10-19T23:59:09.782Z,16.83
